Majesty of the Seas — C6FZ8 — position and weather

sailwx.info

Track history (hours):
 
Tides and Currents Weather Stations Pressure Air Temp Water Temp Dewpoint Dewpoint Depression Visibility Wind Speed Wind Dir Waves Ship Positions

Majesty of the Seas (Bahamas)

Last reported at 2014-Sep-02 00:25 UTC. Time now 2014-Sep-02 02:12 UTC.
Position N 26°02' W 079°25'.

Length 268 m; draft 8 m.

Type: Passenger vessel. MMSI: 311734000.

Date/timePositionNaut miles runAvg speedWind from/ knotsBaromVisibWave heightAir tempDewpointWater temp
2014-Sep-02 00:25N 26°02' W 079°25'1214.3
2014-Sep-01 23:33N 25°57' W 079°37'1514.6
2014-Sep-01 22:33N 25°51' W 079°52'1313.0
2014-Sep-01 21:33N 25°46' W 080°05'5 4.6
2014-Sep-01 20:27N 25°47' W 080°11'0 0.0
2014-Sep-01 19:27N 25°47' W 080°11'0 0.0
2014-Sep-01 18:27N 25°47' W 080°11'0 0.0
2014-Sep-01 17:27N 25°47' W 080°11'0 0.0
2014-Sep-01 16:30N 25°47' W 080°11'0 0.0
2014-Sep-01 15:27N 25°47' W 080°11'0 0.0
2014-Sep-01 14:27N 25°47' W 080°11'0 0.0
2014-Sep-01 13:33N 25°47' W 080°11'0 0.0
2014-Sep-01 12:33N 25°47' W 080°11'0 0.0
2014-Sep-01 11:33N 25°47' W 080°11'0 0.1
2014-Sep-01 10:27N 25°47' W 080°11'6 7.0
2014-Sep-01 09:33N 25°46' W 080°04'1010.3
2014-Sep-01 08:33N 25°51' W 079°53'1413.9
2014-Sep-01 07:33N 25°57' W 079°39'1414.4
2014-Sep-01 06:33N 26°02' W 079°25'1815.2
2014-Sep-01 05:22N 26°10' W 079°06'21 0.4
2014-Aug-30 01:24N 26°06' W 079°29'910.2
2014-Aug-30 00:33N 26°01' W 079°37'1010.3
2014-Aug-29 23:33N 25°56' W 079°47'1110.5
2014-Aug-29 22:33N 25°51' W 079°57'9 8.9
2014-Aug-29 21:33N 25°46' W 080°05'5 1.4
2014-Aug-29 18:04N 25°47' W 080°11'0 0.0
2014-Aug-29 17:31N 25°47' W 080°11'0 0.0
2014-Aug-29 13:07N 25°47' W 080°11'0 0.0
2014-Aug-29 12:22N 25°47' W 080°11'0 0.0
2014-Aug-29 11:25N 25°47' W 080°11'0 0.2
2014-Aug-29 10:33N 25°47' W 080°11'7 6.6
2014-Aug-29 09:33N 25°47' W 080°03'1212.4
2014-Aug-29 08:33N 25°38' W 079°53'27 0.9
2014-Aug-28 02:33N 25°51' W 079°27'2216.5
2014-Aug-28 01:13N 26°08' W 079°10'1216.5
2014-Aug-28 00:31N 26°09' W 078°58'5817.2
2014-Aug-27 21:08N 25°50' W 077°56'89 1.9
2014-Aug-25 23:33N 25°58' W 079°35'1313.3
2014-Aug-25 22:33N 25°53' W 079°48'1414.0
2014-Aug-25 21:33N 25°47' W 080°02'8 7.8
2014-Aug-25 20:33N 25°47' W 080°11'0 0.0
2014-Aug-25 19:30N 25°47' W 080°11'0 0.0
2014-Aug-25 18:03N 25°47' W 080°11'0 0.0
2014-Aug-25 17:33N 25°47' W 080°11'0 0.0
2014-Aug-25 16:18N 25°47' W 080°11'0 0.0
2014-Aug-25 15:21N 25°47' W 080°11'0 0.0
2014-Aug-25 14:21N 25°47' W 080°11'0 0.0
2014-Aug-25 11:24N 25°47' W 080°11'0 0.3
2014-Aug-25 10:33N 25°47' W 080°11'7 6.9
2014-Aug-25 09:34N 25°47' W 080°03'1212.0
2014-Aug-25 08:34N 25°50' W 079°51'1615.6
2014-Aug-25 07:33N 25°58' W 079°36'1414.1
2014-Aug-25 06:33N 26°04' W 079°21'1424.9
2014-Aug-25 06:00N 26°06' W 079°06'   330 / 121007.0 28.0
2014-Aug-23 01:25N 26°04' W 079°33'910.4
2014-Aug-23 00:33N 25°59' W 079°41'  
Track history (hours):
 
Tides and Currents Weather Stations Pressure Air Temp Water Temp Dewpoint Dewpoint Depression Visibility Wind Speed Wind Dir Waves Ship Positions

Majesty of the Seas (Bahamas)

Last reported at 2014-Sep-02 00:25 UTC. Time now 2014-Sep-02 02:12 UTC.
Position N 26°02' W 079°25'.

Length 268 m; draft 8 m.

Type: Passenger vessel. MMSI: 311734000.

Date/timePositionNaut miles runAvg speedWind from/ knotsBaromVisibWave heightAir tempDewpointWater temp
2014-Sep-02 00:25N 26°02' W 079°25'1214.3
2014-Sep-01 23:33N 25°57' W 079°37'1514.6
2014-Sep-01 22:33N 25°51' W 079°52'1313.0
2014-Sep-01 21:33N 25°46' W 080°05'5 4.6
2014-Sep-01 20:27N 25°47' W 080°11'0 0.0
2014-Sep-01 19:27N 25°47' W 080°11'0 0.0
2014-Sep-01 18:27N 25°47' W 080°11'0 0.0
2014-Sep-01 17:27N 25°47' W 080°11'0 0.0
2014-Sep-01 16:30N 25°47' W 080°11'0 0.0
2014-Sep-01 15:27N 25°47' W 080°11'0 0.0
2014-Sep-01 14:27N 25°47' W 080°11'0 0.0
2014-Sep-01 13:33N 25°47' W 080°11'0 0.0
2014-Sep-01 12:33N 25°47' W 080°11'0 0.0
2014-Sep-01 11:33N 25°47' W 080°11'0 0.1
2014-Sep-01 10:27N 25°47' W 080°11'6 7.0
2014-Sep-01 09:33N 25°46' W 080°04'1010.3
2014-Sep-01 08:33N 25°51' W 079°53'1413.9
2014-Sep-01 07:33N 25°57' W 079°39'1414.4
2014-Sep-01 06:33N 26°02' W 079°25'1815.2
2014-Sep-01 05:22N 26°10' W 079°06'21 0.4
2014-Aug-30 01:24N 26°06' W 079°29'910.2
2014-Aug-30 00:33N 26°01' W 079°37'1010.3
2014-Aug-29 23:33N 25°56' W 079°47'1110.5
2014-Aug-29 22:33N 25°51' W 079°57'9 8.9
2014-Aug-29 21:33N 25°46' W 080°05'5 1.4
2014-Aug-29 18:04N 25°47' W 080°11'0 0.0
2014-Aug-29 17:31N 25°47' W 080°11'0 0.0
2014-Aug-29 13:07N 25°47' W 080°11'0 0.0
2014-Aug-29 12:22N 25°47' W 080°11'0 0.0
2014-Aug-29 11:25N 25°47' W 080°11'0 0.2
2014-Aug-29 10:33N 25°47' W 080°11'7 6.6
2014-Aug-29 09:33N 25°47' W 080°03'1212.4
2014-Aug-29 08:33N 25°38' W 079°53'27 0.9
2014-Aug-28 02:33N 25°51' W 079°27'2216.5
2014-Aug-28 01:13N 26°08' W 079°10'1216.5
2014-Aug-28 00:31N 26°09' W 078°58'5817.2
2014-Aug-27 21:08N 25°50' W 077°56'89 1.9
2014-Aug-25 23:33N 25°58' W 079°35'1313.3
2014-Aug-25 22:33N 25°53' W 079°48'1414.0
2014-Aug-25 21:33N 25°47' W 080°02'8 7.8
2014-Aug-25 20:33N 25°47' W 080°11'0 0.0
2014-Aug-25 19:30N 25°47' W 080°11'0 0.0
2014-Aug-25 18:03N 25°47' W 080°11'0 0.0
2014-Aug-25 17:33N 25°47' W 080°11'0 0.0
2014-Aug-25 16:18N 25°47' W 080°11'0 0.0
2014-Aug-25 15:21N 25°47' W 080°11'0 0.0
2014-Aug-25 14:21N 25°47' W 080°11'0 0.0
2014-Aug-25 11:24N 25°47' W 080°11'0 0.3
2014-Aug-25 10:33N 25°47' W 080°11'7 6.9
2014-Aug-25 09:34N 25°47' W 080°03'1212.0
2014-Aug-25 08:34N 25°50' W 079°51'1615.6
2014-Aug-25 07:33N 25°58' W 079°36'1414.1
2014-Aug-25 06:33N 26°04' W 079°21'1424.9
2014-Aug-25 06:00N 26°06' W 079°06'   330 / 121007.0 28.0
2014-Aug-23 01:25N 26°04' W 079°33'910.4
2014-Aug-23 00:33N 25°59' W 079°41'  

Dump ship's entire track history